createdAt,value
2017-09-09T00:00:15.824Z,92
2017-09-09T00:01:18.214Z,92
2017-09-09T00:02:20.602Z,91.9
2017-09-09T00:03:22.998Z,92
2017-09-09T00:04:25.392Z,92
2017-09-09T00:05:27.792Z,92
2017-09-09T00:06:30.184Z,92.1
2017-09-09T00:07:32.580Z,92
2017-09-09T00:08:34.979Z,91.9
2017-09-09T00:09:37.364Z,91.9
2017-09-09T00:10:39.755Z,91.9
2017-09-09T00:11:42.159Z,91.9
2017-09-09T00:12:44.886Z,91.9
2017-09-09T00:13:47.277Z,91.9
2017-09-09T00:14:49.668Z,92
2017-09-09T00:15:52.071Z,91.9
2017-09-09T00:16:54.469Z,91.8
2017-09-09T00:17:56.871Z,91.9
2017-09-09T00:18:59.255Z,91.9
2017-09-09T00:20:01.662Z,92
2017-09-09T00:21:04.404Z,92.1
2017-09-09T00:22:06.792Z,92
2017-09-09T00:23:09.185Z,92
2017-09-09T00:24:11.917Z,92
2017-09-09T00:25:14.312Z,92.1
2017-09-09T00:26:16.712Z,92.1
2017-09-09T00:27:19.101Z,92.1
2017-09-09T00:28:21.490Z,92
2017-09-09T00:29:23.897Z,92.1
2017-09-09T00:30:26.629Z,92.1
2017-09-09T00:31:29.029Z,92.1
2017-09-09T00:32:31.427Z,92.1
2017-09-09T00:33:33.815Z,92.1
2017-09-09T00:34:36.208Z,92
2017-09-09T00:35:38.612Z,92.1
2017-09-09T00:36:41.015Z,92.1
2017-09-09T00:37:43.412Z,92.1
2017-09-09T00:38:45.803Z,92
2017-09-09T00:39:48.196Z,92.2
2017-09-09T00:40:50.585Z,92.2
2017-09-09T00:41:52.988Z,92.2
2017-09-09T00:42:55.713Z,92.2
2017-09-09T00:43:58.106Z,92.1
2017-09-09T00:45:00.495Z,92.1
2017-09-09T00:46:02.894Z,92.1
2017-09-09T00:47:05.293Z,92.1
2017-09-09T00:48:07.688Z,92.1
2017-09-09T00:49:10.082Z,92.2
2017-09-09T00:50:12.821Z,92.1
2017-09-09T00:51:15.212Z,92.1
2017-09-09T00:52:17.955Z,92.2
2017-09-09T00:53:20.340Z,92.2
2017-09-09T00:54:22.745Z,92.2
2017-09-09T00:55:25.140Z,92.1
2017-09-09T00:56:27.886Z,92.1
2017-09-09T00:57:30.281Z,92.2
2017-09-09T00:58:32.674Z,92.1
2017-09-09T00:59:35.068Z,92
2017-09-09T01:00:37.467Z,92.1
2017-09-09T01:01:39.857Z,92
2017-09-09T01:02:42.247Z,92.1
2017-09-09T01:03:44.652Z,92.1
2017-09-09T01:04:47.381Z,92.1
2017-09-09T01:05:49.773Z,92.1
2017-09-09T01:06:52.170Z,92.2
2017-09-09T01:07:54.552Z,92.2
2017-09-09T01:08:56.951Z,92.2
2017-09-09T01:09:59.342Z,92.2
2017-09-09T01:11:01.740Z,92.2
2017-09-09T01:12:04.478Z,92.2
2017-09-09T01:13:06.868Z,92.2
2017-09-09T01:14:09.261Z,92.1
2017-09-09T01:15:11.661Z,92.1
2017-09-09T01:16:14.057Z,92.1
2017-09-09T01:17:16.455Z,92
2017-09-09T01:18:18.847Z,92.1
2017-09-09T01:19:21.246Z,92.2
2017-09-09T01:20:23.632Z,92.1
2017-09-09T01:21:26.704Z,92
2017-09-09T01:22:29.094Z,92
2017-09-09T01:23:31.835Z,92.1
2017-09-09T01:24:34.228Z,92.2
2017-09-09T01:25:36.624Z,92.1
2017-09-09T01:26:39.016Z,92.1
2017-09-09T01:27:41.421Z,92.2
2017-09-09T01:28:43.817Z,92.1
2017-09-09T01:29:46.212Z,92.1
2017-09-09T01:30:48.607Z,92
2017-09-09T01:31:50.996Z,92.1
2017-09-09T01:32:53.391Z,92.1
2017-09-09T01:33:55.787Z,92.1
2017-09-09T01:34:58.524Z,92.2
2017-09-09T01:36:00.913Z,92.2
2017-09-09T01:37:03.303Z,92.2
2017-09-09T01:38:05.707Z,92.2
2017-09-09T01:39:08.097Z,92.2
2017-09-09T01:40:10.494Z,92.2
2017-09-09T01:41:12.898Z,92.2
2017-09-09T01:42:15.279Z,92.2
2017-09-09T01:43:17.675Z,92.2
2017-09-09T01:44:20.074Z,92.3
2017-09-09T01:45:22.458Z,92.2
2017-09-09T01:46:24.854Z,92.2
2017-09-09T01:47:27.249Z,92.2
2017-09-09T01:48:29.641Z,92.2
2017-09-09T01:49:32.038Z,92.1
2017-09-09T01:50:34.437Z,92
2017-09-09T01:51:36.817Z,92
2017-09-09T01:52:39.214Z,92
2017-09-09T01:53:41.619Z,92.1
2017-09-09T01:54:44.015Z,92.1
2017-09-09T01:55:46.415Z,92
2017-09-09T01:56:48.806Z,92.1
2017-09-09T01:57:51.199Z,92.1
2017-09-09T01:58:53.600Z,92.1
2017-09-09T01:59:55.986Z,92.1
2017-09-09T02:00:58.398Z,92.1
2017-09-09T02:02:00.777Z,92
2017-09-09T02:03:03.165Z,92
2017-09-09T02:04:05.564Z,92
2017-09-09T02:05:07.952Z,92.1
2017-09-09T02:06:10.348Z,92.1
2017-09-09T02:07:12.738Z,92.2
2017-09-09T02:08:15.142Z,92.1
2017-09-09T02:09:17.536Z,92.1
2017-09-09T02:10:19.934Z,92
2017-09-09T02:11:22.317Z,92.1
2017-09-09T02:12:24.717Z,92.1
2017-09-09T02:13:27.107Z,92.2
2017-09-09T02:14:29.501Z,92.1
2017-09-09T02:15:31.892Z,92.1
2017-09-09T02:16:34.282Z,92.2
2017-09-09T02:17:36.676Z,92
2017-09-09T02:18:39.073Z,92
2017-09-09T02:19:41.471Z,92.1
2017-09-09T02:20:44.207Z,92.1
2017-09-09T02:21:46.947Z,92
2017-09-09T02:22:49.346Z,92.1
2017-09-09T02:23:51.742Z,92.1
2017-09-09T02:24:54.134Z,92.2
2017-09-09T02:25:56.526Z,92.1
2017-09-09T02:26:58.911Z,92.2
2017-09-09T02:28:01.308Z,92.1
2017-09-09T02:29:04.045Z,92.2
2017-09-09T02:30:06.439Z,92.1
2017-09-09T02:31:08.835Z,92.2
2017-09-09T02:32:11.233Z,92.1
2017-09-09T02:33:13.621Z,92.2
2017-09-09T02:34:16.016Z,92.2
2017-09-09T02:35:18.410Z,92.3
2017-09-09T02:36:20.799Z,92.3
2017-09-09T02:37:23.187Z,92.3
2017-09-09T02:38:25.582Z,92.2
2017-09-09T02:39:27.982Z,92.3
2017-09-09T02:40:30.374Z,92.3
2017-09-09T02:41:32.773Z,92.3
2017-09-09T02:42:35.166Z,92.3
2017-09-09T02:43:37.554Z,92.3
2017-09-09T02:44:39.953Z,92.2
2017-09-09T02:45:42.345Z,92.3
2017-09-09T02:46:44.738Z,92.2
2017-09-09T02:47:47.137Z,92.1
2017-09-09T02:48:49.529Z,92.1
2017-09-09T02:49:51.926Z,92.1
2017-09-09T02:50:54.331Z,92.1
2017-09-09T02:51:56.727Z,92.1
2017-09-09T02:52:59.119Z,92.1
2017-09-09T02:54:01.516Z,92.2
2017-09-09T02:55:03.913Z,92.2
2017-09-09T02:56:06.306Z,92.1
2017-09-09T02:57:08.704Z,92.2
2017-09-09T02:58:11.085Z,92
2017-09-09T02:59:13.481Z,92.1
2017-09-09T03:00:15.887Z,92.1
2017-09-09T03:01:18.279Z,92.1
2017-09-09T03:02:21.022Z,92
2017-09-09T03:03:23.430Z,92.1
2017-09-09T03:04:25.830Z,92.1
2017-09-09T03:05:28.208Z,92.1
2017-09-09T03:06:30.600Z,92.2
2017-09-09T03:07:33.002Z,92.2
2017-09-09T03:08:35.389Z,92.1
2017-09-09T03:09:37.791Z,92
2017-09-09T03:10:40.183Z,92.1
2017-09-09T03:11:42.575Z,92.2
2017-09-09T03:12:44.978Z,92.2
2017-09-09T03:13:47.379Z,92.2
2017-09-09T03:14:49.757Z,92.2
2017-09-09T03:15:52.152Z,92.2
2017-09-09T03:16:54.552Z,92.2
2017-09-09T03:17:56.947Z,92.1
2017-09-09T03:18:59.345Z,92.1
2017-09-09T03:20:01.735Z,92.1
2017-09-09T03:21:04.488Z,92.1
2017-09-09T03:22:06.893Z,92.2
2017-09-09T03:23:09.288Z,92.2
2017-09-09T03:24:11.684Z,92.1
2017-09-09T03:25:14.420Z,92.1
2017-09-09T03:26:16.809Z,92.2
2017-09-09T03:27:19.204Z,92.1
2017-09-09T03:28:21.599Z,92.1
2017-09-09T03:29:23.993Z,92.2
2017-09-09T03:30:26.382Z,92.1
2017-09-09T03:31:28.780Z,92
2017-09-09T03:32:31.173Z,92.1
2017-09-09T03:33:33.930Z,92.1
2017-09-09T03:34:36.324Z,92.1
2017-09-09T03:35:38.721Z,92
2017-09-09T03:36:41.116Z,92
2017-09-09T03:37:43.501Z,92.1
2017-09-09T03:38:45.906Z,92.1
2017-09-09T03:39:48.292Z,92.1
2017-09-09T03:40:50.688Z,92.1
2017-09-09T03:41:53.088Z,92
2017-09-09T03:42:55.484Z,92
2017-09-09T03:43:57.878Z,92
2017-09-09T03:45:00.284Z,92.1
2017-09-09T03:46:02.680Z,92
2017-09-09T03:47:05.077Z,92
2017-09-09T03:48:07.467Z,92
2017-09-09T03:49:09.859Z,91.9
2017-09-09T03:50:12.262Z,91.9
2017-09-09T03:51:14.648Z,92
2017-09-09T03:52:17.039Z,92
2017-09-09T03:53:19.439Z,92
2017-09-09T03:54:22.516Z,92
2017-09-09T03:55:24.913Z,91.9
2017-09-09T03:56:27.312Z,91.9
2017-09-09T03:57:29.691Z,91.9
2017-09-09T03:58:32.084Z,92
2017-09-09T03:59:34.481Z,92
2017-09-09T04:00:36.878Z,92
2017-09-09T04:01:39.276Z,92
2017-09-09T04:02:42.012Z,92
2017-09-09T04:03:44.406Z,91.9
2017-09-09T04:04:46.790Z,91.9
2017-09-09T04:05:49.185Z,91.9
2017-09-09T04:06:51.590Z,91.9
2017-09-09T04:07:53.986Z,91.8
2017-09-09T04:08:56.385Z,91.8
2017-09-09T04:09:58.775Z,91.9
2017-09-09T04:11:01.169Z,91.9
2017-09-09T04:12:03.577Z,91.9
2017-09-09T04:13:05.970Z,92
2017-09-09T04:14:08.361Z,92
2017-09-09T04:15:10.765Z,92
2017-09-09T04:16:13.158Z,92
2017-09-09T04:17:15.558Z,92
2017-09-09T04:18:17.955Z,92
2017-09-09T04:19:20.342Z,92
2017-09-09T04:20:22.736Z,92
2017-09-09T04:21:25.491Z,91.9
2017-09-09T04:22:27.882Z,91.9
2017-09-09T04:23:30.275Z,91.9
2017-09-09T04:24:32.669Z,91.8
2017-09-09T04:25:35.065Z,91.8
2017-09-09T04:26:37.472Z,91.8
2017-09-09T04:27:39.874Z,91.8
2017-09-09T04:28:42.601Z,91.9
2017-09-09T04:29:45.005Z,91.9
2017-09-09T04:30:47.763Z,92
2017-09-09T04:31:50.165Z,91.9
2017-09-09T04:32:52.563Z,91.9
2017-09-09T04:33:54.968Z,91.8
2017-09-09T04:34:57.365Z,91.8
2017-09-09T04:35:59.763Z,91.9
2017-09-09T04:37:02.155Z,91.8
2017-09-09T04:38:04.565Z,91.8
2017-09-09T04:39:06.960Z,91.8
2017-09-09T04:40:09.366Z,91.8
2017-09-09T04:41:11.759Z,91.8
2017-09-09T04:42:14.157Z,91.8
2017-09-09T04:43:16.552Z,91.8
2017-09-09T04:44:18.952Z,91.8
2017-09-09T04:45:21.339Z,91.8
2017-09-09T04:46:23.741Z,91.8
2017-09-09T04:47:26.139Z,91.8
2017-09-09T04:48:28.531Z,91.8
2017-09-09T04:49:30.926Z,91.8
2017-09-09T04:50:33.321Z,91.8
2017-09-09T04:51:35.706Z,91.8
2017-09-09T04:52:38.111Z,91.7
2017-09-09T04:53:40.497Z,91.8
2017-09-09T04:54:42.901Z,91.8
2017-09-09T04:55:45.296Z,91.7
2017-09-09T04:56:47.695Z,91.8
2017-09-09T04:57:50.092Z,91.8
2017-09-09T04:58:52.488Z,91.8
2017-09-09T04:59:54.878Z,91.8
2017-09-09T05:00:57.608Z,91.8
2017-09-09T05:02:00.004Z,91.8
2017-09-09T05:03:02.399Z,91.8
2017-09-09T05:04:04.801Z,91.8
2017-09-09T05:05:07.545Z,91.8
2017-09-09T05:06:09.946Z,91.8
2017-09-09T05:07:12.339Z,91.8
2017-09-09T05:08:14.736Z,91.8
2017-09-09T05:09:17.144Z,91.7
2017-09-09T05:10:19.533Z,91.8
2017-09-09T05:11:21.928Z,91.8
2017-09-09T05:12:24.675Z,91.8
2017-09-09T05:13:27.066Z,91.8
2017-09-09T05:14:29.462Z,91.8
2017-09-09T05:15:31.857Z,91.9
2017-09-09T05:16:34.253Z,91.8
2017-09-09T05:17:36.638Z,91.8
2017-09-09T05:18:39.037Z,91.8
2017-09-09T05:19:41.426Z,91.8
2017-09-09T05:20:43.820Z,91.8
2017-09-09T05:21:46.221Z,91.8
2017-09-09T05:22:48.616Z,91.8
2017-09-09T05:23:51.013Z,91.9
2017-09-09T05:24:53.412Z,91.9
2017-09-09T05:25:55.810Z,91.9
2017-09-09T05:26:58.212Z,91.9
2017-09-09T05:28:00.601Z,92
2017-09-09T05:29:02.999Z,92
2017-09-09T05:30:05.386Z,92.1
2017-09-09T05:31:07.787Z,92.1
2017-09-09T05:32:10.189Z,92.1
2017-09-09T05:33:12.588Z,92.1
2017-09-09T05:34:14.984Z,92.1
2017-09-09T05:35:17.376Z,92
2017-09-09T05:36:19.769Z,92
2017-09-09T05:37:22.177Z,92
2017-09-09T05:38:24.574Z,92
2017-09-09T05:39:26.963Z,92
2017-09-09T05:40:29.695Z,92
2017-09-09T05:41:32.435Z,92
2017-09-09T05:42:34.840Z,92.1
2017-09-09T05:43:37.238Z,92.1
2017-09-09T05:44:39.629Z,92
2017-09-09T05:45:42.022Z,92
2017-09-09T05:46:44.415Z,92
2017-09-09T05:47:46.812Z,92
2017-09-09T05:48:49.208Z,92
2017-09-09T05:49:51.601Z,92
2017-09-09T05:50:54.000Z,91.9
2017-09-09T05:51:56.401Z,91.9
2017-09-09T05:52:58.798Z,91.9
2017-09-09T05:54:01.194Z,91.9
2017-09-09T05:55:03.583Z,91.9
2017-09-09T05:56:05.978Z,91.9
2017-09-09T05:57:08.377Z,91.9
2017-09-09T05:58:11.111Z,91.9
2017-09-09T05:59:13.497Z,91.9
2017-09-09T06:00:15.904Z,92
2017-09-09T06:01:18.295Z,92
2017-09-09T06:02:20.687Z,91.9
2017-09-09T06:03:23.089Z,92
2017-09-09T06:04:25.483Z,92.1
2017-09-09T06:05:27.871Z,92.1
2017-09-09T06:06:30.268Z,92.1
2017-09-09T06:07:32.659Z,92
2017-09-09T06:08:35.061Z,91.9
2017-09-09T06:09:37.800Z,91.9
2017-09-09T06:10:40.182Z,91.9
2017-09-09T06:11:42.580Z,91.8
2017-09-09T06:12:44.979Z,91.8
2017-09-09T06:13:47.369Z,91.8
2017-09-09T06:14:49.775Z,91.8
2017-09-09T06:15:52.158Z,91.7
2017-09-09T06:16:54.554Z,91.7
2017-09-09T06:17:56.954Z,91.7
2017-09-09T06:18:59.352Z,91.8
2017-09-09T06:20:01.752Z,91.9
2017-09-09T06:21:04.154Z,91.9
2017-09-09T06:22:06.887Z,92.1
2017-09-09T06:23:09.287Z,92.2
2017-09-09T06:24:11.675Z,92.1
2017-09-09T06:25:14.065Z,91.8
2017-09-09T06:26:16.460Z,91.9
2017-09-09T06:27:18.857Z,91.9
2017-09-09T06:28:21.261Z,92
2017-09-09T06:29:23.659Z,91.9
2017-09-09T06:30:26.056Z,91.9
2017-09-09T06:31:28.446Z,91.9
2017-09-09T06:32:30.843Z,91.9
2017-09-09T06:33:33.238Z,92
2017-09-09T06:34:35.975Z,92
2017-09-09T06:35:38.371Z,92.1
2017-09-09T06:36:40.768Z,91.9
2017-09-09T06:37:43.165Z,91.7
2017-09-09T06:38:45.567Z,91.8
2017-09-09T06:39:47.961Z,91.8
2017-09-09T06:40:50.361Z,91.8
2017-09-09T06:41:52.757Z,91.8
2017-09-09T06:42:55.155Z,91.8
2017-09-09T06:43:57.549Z,91.8
2017-09-09T06:44:59.948Z,91.8
2017-09-09T06:46:02.355Z,91.7
2017-09-09T06:47:04.745Z,91.7
2017-09-09T06:48:07.141Z,91.7
2017-09-09T06:49:09.544Z,91.8
2017-09-09T06:50:11.933Z,91.7
2017-09-09T06:51:14.332Z,91.8
2017-09-09T06:52:16.727Z,91.8
2017-09-09T06:53:19.118Z,91.8
2017-09-09T06:54:21.516Z,91.8
2017-09-09T06:55:23.912Z,91.9
2017-09-09T06:56:26.306Z,91.8
2017-09-09T06:57:28.711Z,91.8
2017-09-09T06:58:31.104Z,91.7
2017-09-09T06:59:33.492Z,91.8
2017-09-09T07:00:35.890Z,91.9
2017-09-09T07:01:38.282Z,92
2017-09-09T07:02:40.680Z,91.9
2017-09-09T07:03:43.080Z,92
2017-09-09T07:04:45.481Z,92
2017-09-09T07:05:48.221Z,92
2017-09-09T07:06:50.618Z,92.1
2017-09-09T07:07:53.019Z,92.1
2017-09-09T07:08:55.422Z,92.1
2017-09-09T07:09:57.804Z,92.1
2017-09-09T07:11:00.200Z,92
2017-09-09T07:12:02.944Z,92
2017-09-09T07:13:05.341Z,92
2017-09-09T07:14:07.742Z,92
2017-09-09T07:15:10.135Z,92.1
2017-09-09T07:16:12.529Z,92
2017-09-09T07:17:15.277Z,91.9
2017-09-09T07:18:18.008Z,91.9
2017-09-09T07:19:20.412Z,91.9
2017-09-09T07:20:22.809Z,91.7
2017-09-09T07:21:25.203Z,91.7
2017-09-09T07:22:27.601Z,91.7
2017-09-09T07:23:30.007Z,91.8
2017-09-09T07:24:32.393Z,91.9
2017-09-09T07:25:34.793Z,91.9
2017-09-09T07:26:37.194Z,91.6
2017-09-09T07:27:39.586Z,91.6
2017-09-09T07:28:41.974Z,91.6
2017-09-09T07:29:44.714Z,91.6
2017-09-09T07:30:47.106Z,91.7
2017-09-09T07:31:49.498Z,91.8
2017-09-09T07:32:51.894Z,91.8
2017-09-09T07:33:54.300Z,91.7
2017-09-09T07:34:56.695Z,91.8
2017-09-09T07:35:59.094Z,91.9
2017-09-09T07:37:01.489Z,91.9
2017-09-09T07:38:03.897Z,91.9
2017-09-09T07:39:06.295Z,92
2017-09-09T07:40:08.697Z,92
2017-09-09T07:41:11.082Z,91.9
2017-09-09T07:42:13.478Z,91.8
2017-09-09T07:43:15.881Z,91.8
2017-09-09T07:44:18.277Z,91.8
2017-09-09T07:45:20.674Z,91.9
2017-09-09T07:46:23.067Z,91.8
2017-09-09T07:47:25.604Z,91.8
2017-09-09T07:48:28.014Z,91.8
2017-09-09T07:49:30.414Z,91.7
2017-09-09T07:50:33.144Z,91.8
2017-09-09T07:51:35.545Z,91.6
2017-09-09T07:52:37.943Z,91.6
2017-09-09T07:53:40.339Z,91.7
2017-09-09T07:54:42.744Z,91.8
2017-09-09T07:55:45.130Z,91.8
2017-09-09T07:56:47.860Z,91.8
2017-09-09T07:57:50.266Z,91.8
2017-09-09T07:58:52.656Z,91.6
2017-09-09T07:59:55.048Z,91.5
2017-09-09T08:00:57.446Z,91.6
2017-09-09T08:01:59.842Z,91.7
2017-09-09T08:03:02.248Z,91.8
2017-09-09T08:04:04.651Z,91.9
2017-09-09T08:05:07.034Z,91.9
2017-09-09T08:06:09.434Z,92
2017-09-09T08:07:11.829Z,92
2017-09-09T08:08:14.220Z,92
2017-09-09T08:09:16.617Z,91.8
2017-09-09T08:10:19.016Z,91.8
2017-09-09T08:11:21.748Z,91.8
2017-09-09T08:12:24.150Z,91.9
2017-09-09T08:13:26.536Z,92.1
2017-09-09T08:14:28.937Z,92.1
2017-09-09T08:15:31.674Z,91.9
2017-09-09T08:16:34.065Z,92
2017-09-09T08:17:36.465Z,92
2017-09-09T08:18:38.868Z,92
2017-09-09T08:19:41.261Z,91.9
2017-09-09T08:20:43.653Z,91.9
2017-09-09T08:21:46.046Z,91.9
2017-09-09T08:22:48.437Z,92
2017-09-09T08:23:50.849Z,92
2017-09-09T08:24:53.243Z,91.9
2017-09-09T08:25:55.632Z,91.9
2017-09-09T08:26:58.032Z,91.9
2017-09-09T08:28:00.444Z,91.9
2017-09-09T08:29:03.860Z,92
2017-09-09T08:30:06.258Z,92.1
2017-09-09T08:31:09.001Z,92
2017-09-09T08:32:11.394Z,92
2017-09-09T08:33:13.798Z,92.1
2017-09-09T08:34:16.196Z,92.1
2017-09-09T08:35:18.595Z,92
2017-09-09T08:36:20.999Z,92
2017-09-09T08:37:24.069Z,91.9
2017-09-09T08:38:26.451Z,91.8
2017-09-09T08:39:28.851Z,91.6
2017-09-09T08:40:31.247Z,91.7
2017-09-09T08:41:33.647Z,91.7
2017-09-09T08:42:36.038Z,91.7
2017-09-09T08:43:38.770Z,91.7
2017-09-09T08:44:41.506Z,91.7
2017-09-09T08:45:43.907Z,91.6
2017-09-09T08:46:46.307Z,91.6
2017-09-09T08:47:48.703Z,91.7
2017-09-09T08:48:51.101Z,91.8
2017-09-09T08:49:53.493Z,91.8
2017-09-09T08:50:55.890Z,91.9
2017-09-09T08:51:58.280Z,91.8
2017-09-09T08:53:00.675Z,91.8
2017-09-09T08:54:03.071Z,91.8
2017-09-09T08:55:05.473Z,91.8
2017-09-09T08:56:07.868Z,91.7
2017-09-09T08:57:10.267Z,91.8
2017-09-09T08:58:12.668Z,91.9
2017-09-09T08:59:15.061Z,92
2017-09-09T09:00:17.449Z,91.9
2017-09-09T09:01:19.844Z,91.9
2017-09-09T09:02:22.251Z,91.9
2017-09-09T09:03:24.994Z,91.9
2017-09-09T09:04:27.389Z,91.9
2017-09-09T09:05:29.899Z,91.9
2017-09-09T09:06:32.575Z,92
2017-09-09T09:07:34.997Z,92
2017-09-09T09:08:37.392Z,92
2017-09-09T09:09:39.782Z,91.9
2017-09-09T09:10:42.183Z,91.8
2017-09-09T09:11:44.924Z,91.7
2017-09-09T09:12:47.320Z,91.6
2017-09-09T09:13:49.715Z,91.7
2017-09-09T09:14:52.121Z,91.7
2017-09-09T09:15:54.527Z,91.8
2017-09-09T09:16:56.949Z,91.9
2017-09-09T09:17:59.339Z,92
2017-09-09T09:19:01.732Z,92.1
2017-09-09T09:20:04.470Z,92.1
2017-09-09T09:21:06.863Z,92.1
2017-09-09T09:22:09.261Z,92.1
2017-09-09T09:23:11.665Z,92
2017-09-09T09:24:14.085Z,92
2017-09-09T09:25:16.488Z,92.1
2017-09-09T09:26:18.893Z,92.1
2017-09-09T09:27:21.293Z,92
2017-09-09T09:28:23.679Z,92
2017-09-09T09:29:26.082Z,92
2017-09-09T09:30:28.478Z,92.1
2017-09-09T09:31:30.866Z,92.1
2017-09-09T09:32:34.165Z,91.9
2017-09-09T09:33:37.143Z,91.9
2017-09-09T09:34:39.552Z,92
2017-09-09T09:35:43.082Z,92.1
2017-09-09T09:36:45.475Z,92.1
2017-09-09T09:37:47.888Z,92.2
2017-09-09T09:38:52.024Z,92.2
2017-09-09T09:39:55.339Z,92.2
2017-09-09T09:40:58.534Z,92.4
2017-09-09T09:42:00.934Z,92.3
2017-09-09T09:43:04.327Z,92.3
2017-09-09T09:44:07.846Z,92.3
2017-09-09T09:45:10.593Z,92.3
2017-09-09T09:46:12.987Z,92.3
2017-09-09T09:47:15.374Z,92.3
2017-09-09T09:48:18.111Z,92.1
2017-09-09T09:49:20.502Z,92.1
2017-09-09T09:50:23.240Z,92.1
2017-09-09T09:51:25.635Z,92.1
2017-09-09T09:52:28.034Z,92.1
2017-09-09T09:53:30.425Z,92
2017-09-09T09:54:32.834Z,92.1
2017-09-09T09:55:35.229Z,92
2017-09-09T09:56:37.950Z,91.8
2017-09-09T09:57:40.345Z,91.9
2017-09-09T09:58:42.740Z,91.9
2017-09-09T09:59:45.142Z,91.8
2017-09-09T10:00:47.533Z,91.9
2017-09-09T10:01:49.925Z,91.9
2017-09-09T10:02:52.321Z,91.9
2017-09-09T10:03:54.718Z,91.8
2017-09-09T10:04:57.118Z,91.9
2017-09-09T10:05:59.513Z,92
2017-09-09T10:07:01.904Z,92
2017-09-09T10:08:04.298Z,92
2017-09-09T10:09:06.701Z,91.9
2017-09-09T10:10:09.098Z,91.8
2017-09-09T10:11:11.493Z,91.7
2017-09-09T10:12:13.900Z,91.8
2017-09-09T10:13:16.622Z,91.8
2017-09-09T10:14:19.036Z,91.8
2017-09-09T10:15:21.407Z,91.9
2017-09-09T10:16:23.814Z,92.1
2017-09-09T10:17:26.212Z,92.1
2017-09-09T10:18:28.601Z,92.1
2017-09-09T10:19:30.996Z,92
2017-09-09T10:20:33.400Z,92.1
2017-09-09T10:21:35.797Z,92.1
2017-09-09T10:22:38.195Z,92
2017-09-09T10:23:40.585Z,92.2
2017-09-09T10:24:42.974Z,92.2
2017-09-09T10:25:45.368Z,92.2
2017-09-09T10:26:47.760Z,92.3
2017-09-09T10:27:50.162Z,92.4
2017-09-09T10:28:52.891Z,92.3
2017-09-09T10:29:55.283Z,92.3
2017-09-09T10:30:57.678Z,92.3
2017-09-09T10:32:00.067Z,92.3
2017-09-09T10:33:02.456Z,92.4
2017-09-09T10:34:04.864Z,92.4
2017-09-09T10:35:07.249Z,92.3
2017-09-09T10:36:09.647Z,92.3
2017-09-09T10:37:12.045Z,92.3
2017-09-09T10:38:14.436Z,92.3
2017-09-09T10:39:16.834Z,92.3
2017-09-09T10:40:19.242Z,92.4
2017-09-09T10:41:21.633Z,92.4
2017-09-09T10:42:24.038Z,92.4
2017-09-09T10:43:26.434Z,92.3
2017-09-09T10:44:28.813Z,92.4
2017-09-09T10:45:31.220Z,92.5
2017-09-09T10:46:33.721Z,92.5
2017-09-09T10:47:36.114Z,92.6
2017-09-09T10:48:38.850Z,92.7
2017-09-09T10:49:41.241Z,92.8
2017-09-09T10:50:43.639Z,92.8
2017-09-09T10:51:46.041Z,92.8
2017-09-09T10:52:48.426Z,92.9
2017-09-09T10:53:50.822Z,93
2017-09-09T10:54:53.210Z,93.1
2017-09-09T10:55:55.605Z,93.3
2017-09-09T10:56:58.000Z,93.4
2017-09-09T10:58:00.391Z,93.3
2017-09-09T10:59:02.790Z,93
2017-09-09T11:00:05.195Z,92.8
2017-09-09T11:01:07.589Z,92.8
2017-09-09T11:02:09.985Z,92.9
2017-09-09T11:03:12.386Z,92.9
2017-09-09T11:04:14.783Z,93
2017-09-09T11:05:17.178Z,93.1
2017-09-09T11:06:19.568Z,93.1
2017-09-09T11:07:21.957Z,92.9
2017-09-09T11:08:24.366Z,92.9
2017-09-09T11:09:27.098Z,92.8
2017-09-09T11:10:29.489Z,92.9
2017-09-09T11:11:31.889Z,92.9
2017-09-09T11:12:34.284Z,93
2017-09-09T11:13:36.682Z,93
2017-09-09T11:14:39.435Z,92.9
2017-09-09T11:15:41.828Z,92.8
2017-09-09T11:16:44.221Z,92.9
2017-09-09T11:17:46.631Z,92.8
2017-09-09T11:18:49.016Z,92.8
2017-09-09T11:19:51.412Z,92.9
2017-09-09T11:20:53.809Z,92.9
2017-09-09T11:21:56.198Z,93
2017-09-09T11:22:58.600Z,92.9
2017-09-09T11:24:00.994Z,92.9
2017-09-09T11:25:03.384Z,92.9
2017-09-09T11:26:05.779Z,92.9
2017-09-09T11:27:08.176Z,92.9
2017-09-09T11:28:10.577Z,92.8
2017-09-09T11:29:12.964Z,92.8
2017-09-09T11:30:15.364Z,93
2017-09-09T11:31:17.763Z,93
2017-09-09T11:32:20.151Z,92.9
2017-09-09T11:33:22.893Z,92.9
2017-09-09T11:34:25.287Z,93
2017-09-09T11:35:27.675Z,93
2017-09-09T11:36:30.411Z,93.2
2017-09-09T11:37:32.805Z,93.4
2017-09-09T11:38:35.202Z,93.4
2017-09-09T11:39:37.606Z,93.4
2017-09-09T11:40:40.004Z,93.3
2017-09-09T11:41:42.397Z,93.3
2017-09-09T11:42:44.799Z,93.3
2017-09-09T11:43:47.183Z,93
2017-09-09T11:44:49.574Z,93
2017-09-09T11:45:51.972Z,92.9
2017-09-09T11:46:54.368Z,92.9
2017-09-09T11:47:56.764Z,92.9
2017-09-09T11:48:59.157Z,92.8
2017-09-09T11:50:01.548Z,92.8
2017-09-09T11:51:03.947Z,92.8
2017-09-09T11:52:06.346Z,92.9
2017-09-09T11:53:08.739Z,93.1
2017-09-09T11:54:11.139Z,93.1
2017-09-09T11:55:14.236Z,93.2
2017-09-09T11:56:16.628Z,93.3
2017-09-09T11:57:19.031Z,93.5
2017-09-09T11:58:21.437Z,93.6
2017-09-09T11:59:24.171Z,93.8
2017-09-09T12:00:26.556Z,94
2017-09-09T12:01:28.953Z,94.2
2017-09-09T12:02:31.350Z,94.4
2017-09-09T12:03:33.745Z,94.3
2017-09-09T12:04:36.145Z,94.5
2017-09-09T12:05:38.539Z,94.7
2017-09-09T12:06:40.932Z,94.9
2017-09-09T12:07:43.347Z,95.1
2017-09-09T12:08:45.743Z,95.1
2017-09-09T12:09:48.131Z,95.4
2017-09-09T12:10:50.527Z,95.2
2017-09-09T12:11:52.917Z,95.1
2017-09-09T12:12:55.325Z,94.9
2017-09-09T12:13:57.732Z,94.8
2017-09-09T12:15:00.113Z,94.3
2017-09-09T12:16:02.850Z,94.2
2017-09-09T12:17:05.252Z,94.6
2017-09-09T12:18:07.649Z,94.3
2017-09-09T12:19:10.055Z,94.3
2017-09-09T12:20:12.796Z,94.3
2017-09-09T12:21:15.184Z,93.9
2017-09-09T12:22:17.590Z,93.8
2017-09-09T12:23:19.992Z,93.5
2017-09-09T12:24:22.380Z,93.8
2017-09-09T12:25:24.785Z,93.9
2017-09-09T12:26:27.180Z,94.1
2017-09-09T12:27:29.580Z,94.3
2017-09-09T12:28:31.979Z,94
2017-09-09T12:29:34.386Z,93.9
2017-09-09T12:30:36.785Z,93.8
2017-09-09T12:31:39.176Z,93.9
2017-09-09T12:32:41.582Z,93.9
2017-09-09T12:33:43.984Z,93.8
2017-09-09T12:34:46.379Z,94.5
2017-09-09T12:35:48.775Z,94.8
2017-09-09T12:36:51.513Z,94.4
2017-09-09T12:37:53.916Z,94
2017-09-09T12:38:56.320Z,94.1
2017-09-09T12:39:58.716Z,94.3
2017-09-09T12:41:01.107Z,94.2
2017-09-09T12:42:03.514Z,93.9
2017-09-09T12:43:05.922Z,93.4
2017-09-09T12:44:08.322Z,93.4
2017-09-09T12:45:10.722Z,93.3
2017-09-09T12:46:13.111Z,93.7
2017-09-09T12:47:15.513Z,94.4
2017-09-09T12:48:17.919Z,94.4
2017-09-09T12:49:20.316Z,95.2
2017-09-09T12:50:22.719Z,95.6
2017-09-09T12:51:25.124Z,96.2
2017-09-09T12:52:27.522Z,96.6
2017-09-09T12:53:29.929Z,96.2
2017-09-09T12:54:32.337Z,96
2017-09-09T12:55:34.730Z,95.4
2017-09-09T12:56:37.131Z,95.2
2017-09-09T12:57:39.538Z,95
2017-09-09T12:58:41.940Z,94.2
2017-09-09T12:59:44.337Z,93.8
2017-09-09T13:00:46.744Z,93.5
2017-09-09T13:01:49.150Z,93
2017-09-09T13:02:51.895Z,92.5
2017-09-09T13:03:54.294Z,91.7
2017-09-09T13:04:57.027Z,91.4
2017-09-09T13:05:59.423Z,91.4
2017-09-09T13:07:01.836Z,91.4
2017-09-09T13:08:04.243Z,91.4
2017-09-09T13:09:06.980Z,91.4
2017-09-09T13:10:09.380Z,91.6
2017-09-09T13:11:11.796Z,91.9
2017-09-09T13:12:14.220Z,92.8
2017-09-09T13:13:16.954Z,94
2017-09-09T13:14:19.347Z,94.9
2017-09-09T13:15:21.750Z,95.5
2017-09-09T13:16:24.148Z,95.1
2017-09-09T13:17:26.555Z,94.9
2017-09-09T13:18:28.958Z,95.4
2017-09-09T13:19:31.356Z,95.3
2017-09-09T13:20:33.765Z,95.6
2017-09-09T13:21:36.172Z,95.5
2017-09-09T13:22:38.575Z,95
2017-09-09T13:23:40.974Z,94.4
2017-09-09T13:24:43.373Z,93.9
2017-09-09T13:25:45.777Z,93.7
2017-09-09T13:26:48.180Z,93.6
2017-09-09T13:27:50.586Z,93.4
2017-09-09T13:28:52.989Z,93.3
2017-09-09T13:29:55.401Z,93.2
2017-09-09T13:30:57.807Z,93.2
2017-09-09T13:32:00.218Z,92.2
2017-09-09T13:33:02.610Z,92
2017-09-09T13:34:05.021Z,91.9
2017-09-09T13:35:07.750Z,91.3
2017-09-09T13:36:10.159Z,91.1
2017-09-09T13:37:12.560Z,91.2
2017-09-09T13:38:14.965Z,91.5
2017-09-09T13:39:17.358Z,91.7
2017-09-09T13:40:19.767Z,91.7
2017-09-09T13:41:22.164Z,91.4
2017-09-09T13:42:24.568Z,91.5
2017-09-09T13:43:26.972Z,91.7
2017-09-09T13:44:29.376Z,91.8
2017-09-09T13:45:31.775Z,91.9
2017-09-09T13:46:34.192Z,91.6
2017-09-09T13:47:36.645Z,91.7
2017-09-09T13:48:39.052Z,91.9
2017-09-09T13:49:41.799Z,91.7
2017-09-09T13:50:44.205Z,92.3
2017-09-09T13:51:46.606Z,93.6
2017-09-09T13:52:49.009Z,94.1
2017-09-09T13:53:51.406Z,94.5
2017-09-09T13:54:54.078Z,94.1
2017-09-09T13:55:56.492Z,93.9
2017-09-09T13:56:58.887Z,93.5
2017-09-09T13:58:01.293Z,93.5
2017-09-09T13:59:03.705Z,93.3
2017-09-09T14:00:06.110Z,93.5
2017-09-09T14:01:08.514Z,93.5